sensor_id;sensor_type;location;lat;lon;timestamp;P1;durP1;ratioP1;P2;durP2;ratioP2
8927;SDS011;4499;48.304;11.902;2022-11-21T00:01:26;1.10;;;1.00;;
8927;SDS011;4499;48.304;11.902;2022-11-21T00:03:56;1.00;;;1.00;;
8927;SDS011;4499;48.304;11.902;2022-11-21T00:06:24;1.00;;;1.00;;
8927;SDS011;4499;48.304;11.902;2022-11-21T00:08:54;1.20;;;1.10;;
8927;SDS011;4499;48.304;11.902;2022-11-21T00:11:22;1.40;;;0.90;;
8927;SDS011;4499;48.304;11.902;2022-11-21T00:13:50;0.93;;;0.93;;
8927;SDS011;4499;48.304;11.902;2022-11-21T00:16:20;1.23;;;1.10;;
8927;SDS011;4499;48.304;11.902;2022-11-21T00:18:48;1.43;;;0.90;;
8927;SDS011;4499;48.304;11.902;2022-11-21T00:21:18;1.63;;;1.17;;
8927;SDS011;4499;48.304;11.902;2022-11-21T00:23:46;1.40;;;0.97;;
8927;SDS011;4499;48.304;11.902;2022-11-21T00:26:15;1.00;;;1.00;;
8927;SDS011;4499;48.304;11.902;2022-11-21T00:28:43;0.80;;;0.80;;
8927;SDS011;4499;48.304;11.902;2022-11-21T00:31:16;0.97;;;0.97;;
8927;SDS011;4499;48.304;11.902;2022-11-21T00:33:46;1.60;;;1.00;;
8927;SDS011;4499;48.304;11.902;2022-11-21T00:36:14;0.90;;;0.90;;
8927;SDS011;4499;48.304;11.902;2022-11-21T00:38:43;1.07;;;0.90;;
8927;SDS011;4499;48.304;11.902;2022-11-21T00:41:11;0.97;;;0.90;;
8927;SDS011;4499;48.304;11.902;2022-11-21T00:43:39;1.00;;;1.00;;
8927;SDS011;4499;48.304;11.902;2022-11-21T00:46:09;0.90;;;0.90;;
8927;SDS011;4499;48.304;11.902;2022-11-21T00:48:37;0.83;;;0.83;;
8927;SDS011;4499;48.304;11.902;2022-11-21T00:51:05;1.77;;;1.00;;
8927;SDS011;4499;48.304;11.902;2022-11-21T00:53:33;2.20;;;1.00;;
8927;SDS011;4499;48.304;11.902;2022-11-21T00:56:06;0.90;;;0.80;;
8927;SDS011;4499;48.304;11.902;2022-11-21T00:58:36;1.27;;;0.90;;
8927;SDS011;4499;48.304;11.902;2022-11-21T01:01:14;0.93;;;0.93;;
8927;SDS011;4499;48.304;11.902;2022-11-21T01:03:42;1.10;;;1.07;;
8927;SDS011;4499;48.304;11.902;2022-11-21T01:06:11;1.87;;;1.07;;
8927;SDS011;4499;48.304;11.902;2022-11-21T01:08:44;1.13;;;1.10;;
8927;SDS011;4499;48.304;11.902;2022-11-21T01:11:14;0.90;;;0.90;;
8927;SDS011;4499;48.304;11.902;2022-11-21T01:13:43;0.80;;;0.80;;
8927;SDS011;4499;48.304;11.902;2022-11-21T01:16:16;0.97;;;0.97;;
8927;SDS011;4499;48.304;11.902;2022-11-21T01:18:46;0.90;;;0.70;;
8927;SDS011;4499;48.304;11.902;2022-11-21T01:21:15;1.20;;;1.10;;
8927;SDS011;4499;48.304;11.902;2022-11-21T01:23:46;0.90;;;0.83;;
8927;SDS011;4499;48.304;11.902;2022-11-21T01:26:16;1.97;;;1.10;;
8927;SDS011;4499;48.304;11.902;2022-11-21T01:28:47;1.03;;;0.90;;
8927;SDS011;4499;48.304;11.902;2022-11-21T01:31:16;0.90;;;0.90;;
8927;SDS011;4499;48.304;11.902;2022-11-21T01:33:45;1.20;;;1.10;;
8927;SDS011;4499;48.304;11.902;2022-11-21T01:36:14;1.07;;;1.00;;
8927;SDS011;4499;48.304;11.902;2022-11-21T01:38:47;2.07;;;1.00;;
8927;SDS011;4499;48.304;11.902;2022-11-21T01:41:18;0.90;;;0.90;;
8927;SDS011;4499;48.304;11.902;2022-11-21T01:43:48;1.10;;;1.00;;
8927;SDS011;4499;48.304;11.902;2022-11-21T01:46:17;1.30;;;0.90;;
8927;SDS011;4499;48.304;11.902;2022-11-21T01:48:47;0.80;;;0.80;;
8927;SDS011;4499;48.304;11.902;2022-11-21T01:51:21;1.00;;;1.00;;
8927;SDS011;4499;48.304;11.902;2022-11-21T01:53:56;1.20;;;1.00;;
8927;SDS011;4499;48.304;11.902;2022-11-21T01:56:33;2.10;;;1.10;;
8927;SDS011;4499;48.304;11.902;2022-11-21T01:59:07;1.30;;;1.10;;
8927;SDS011;4499;48.304;11.902;2022-11-21T02:01:41;2.50;;;1.20;;
8927;SDS011;4499;48.304;11.902;2022-11-21T02:04:13;1.30;;;1.17;;
8927;SDS011;4499;48.304;11.902;2022-11-21T02:06:41;2.80;;;1.23;;
8927;SDS011;4499;48.304;11.902;2022-11-21T02:09:10;1.37;;;1.10;;
8927;SDS011;4499;48.304;11.902;2022-11-21T02:11:41;1.07;;;1.00;;
8927;SDS011;4499;48.304;11.902;2022-11-21T02:14:19;1.23;;;1.10;;
8927;SDS011;4499;48.304;11.902;2022-11-21T02:16:47;1.43;;;1.00;;
8927;SDS011;4499;48.304;11.902;2022-11-21T02:19:17;1.13;;;1.00;;
8927;SDS011;4499;48.304;11.902;2022-11-21T02:21:52;1.50;;;1.40;;
8927;SDS011;4499;48.304;11.902;2022-11-21T02:24:30;1.80;;;1.10;;
8927;SDS011;4499;48.304;11.902;2022-11-21T02:27:09;1.53;;;1.30;;
8927;SDS011;4499;48.304;11.902;2022-11-21T02:29:37;1.67;;;1.20;;
8927;SDS011;4499;48.304;11.902;2022-11-21T02:32:18;2.03;;;1.30;;
8927;SDS011;4499;48.304;11.902;2022-11-21T02:34:47;1.30;;;1.20;;
8927;SDS011;4499;48.304;11.902;2022-11-21T02:37:15;2.23;;;1.10;;
8927;SDS011;4499;48.304;11.902;2022-11-21T02:39:44;1.90;;;1.20;;
8927;SDS011;4499;48.304;11.902;2022-11-21T02:42:15;2.63;;;1.10;;
8927;SDS011;4499;48.304;11.902;2022-11-21T02:44:50;1.83;;;1.33;;
8927;SDS011;4499;48.304;11.902;2022-11-21T02:47:24;1.17;;;1.03;;
8927;SDS011;4499;48.304;11.902;2022-11-21T02:49:55;2.93;;;1.10;;
8927;SDS011;4499;48.304;11.902;2022-11-21T02:52:28;2.40;;;1.13;;
8927;SDS011;4499;48.304;11.902;2022-11-21T02:54:57;1.40;;;1.10;;
8927;SDS011;4499;48.304;11.902;2022-11-21T02:57:30;1.20;;;1.10;;
8927;SDS011;4499;48.304;11.902;2022-11-21T02:59:58;1.80;;;1.23;;
8927;SDS011;4499;48.304;11.902;2022-11-21T03:02:27;2.03;;;1.10;;
8927;SDS011;4499;48.304;11.902;2022-11-21T03:04:55;2.53;;;1.20;;
8927;SDS011;4499;48.304;11.902;2022-11-21T03:07:24;1.30;;;1.20;;
8927;SDS011;4499;48.304;11.902;2022-11-21T03:09:55;2.20;;;1.20;;
8927;SDS011;4499;48.304;11.902;2022-11-21T03:12:30;2.27;;;1.20;;
8927;SDS011;4499;48.304;11.902;2022-11-21T03:14:58;1.57;;;1.10;;
8927;SDS011;4499;48.304;11.902;2022-11-21T03:17:30;1.53;;;1.20;;
8927;SDS011;4499;48.304;11.902;2022-11-21T03:20:02;1.33;;;1.10;;
8927;SDS011;4499;48.304;11.902;2022-11-21T03:22:31;1.37;;;1.00;;
8927;SDS011;4499;48.304;11.902;2022-11-21T03:24:59;1.97;;;1.13;;
8927;SDS011;4499;48.304;11.902;2022-11-21T03:27:30;1.67;;;1.20;;
8927;SDS011;4499;48.304;11.902;2022-11-21T03:29:58;2.50;;;1.30;;
8927;SDS011;4499;48.304;11.902;2022-11-21T03:32:26;1.93;;;1.20;;
8927;SDS011;4499;48.304;11.902;2022-11-21T03:34:57;3.53;;;1.30;;
8927;SDS011;4499;48.304;11.902;2022-11-21T03:37:30;3.13;;;1.20;;
8927;SDS011;4499;48.304;11.902;2022-11-21T03:40:00;2.30;;;1.00;;
8927;SDS011;4499;48.304;11.902;2022-11-21T03:42:31;3.97;;;1.20;;
8927;SDS011;4499;48.304;11.902;2022-11-21T03:45:03;4.47;;;1.20;;
8927;SDS011;4499;48.304;11.902;2022-11-21T03:47:35;3.27;;;1.20;;
8927;SDS011;4499;48.304;11.902;2022-11-21T03:50:07;1.60;;;1.13;;
8927;SDS011;4499;48.304;11.902;2022-11-21T03:52:35;2.03;;;1.33;;
8927;SDS011;4499;48.304;11.902;2022-11-21T03:55:07;1.57;;;1.00;;
8927;SDS011;4499;48.304;11.902;2022-11-21T03:57:41;2.37;;;1.20;;
8927;SDS011;4499;48.304;11.902;2022-11-21T04:00:14;2.60;;;1.03;;
8927;SDS011;4499;48.304;11.902;2022-11-21T04:02:43;3.27;;;1.30;;
8927;SDS011;4499;48.304;11.902;2022-11-21T04:05:11;3.17;;;1.00;;
8927;SDS011;4499;48.304;11.902;2022-11-21T04:07:40;2.83;;;1.00;;
8927;SDS011;4499;48.304;11.902;2022-11-21T04:10:09;2.50;;;1.13;;
8927;SDS011;4499;48.304;11.902;2022-11-21T04:12:41;2.67;;;1.13;;
8927;SDS011;4499;48.304;11.902;2022-11-21T04:15:09;2.10;;;1.20;;
8927;SDS011;4499;48.304;11.902;2022-11-21T04:17:39;3.30;;;1.10;;
8927;SDS011;4499;48.304;11.902;2022-11-21T04:20:08;3.00;;;1.10;;
8927;SDS011;4499;48.304;11.902;2022-11-21T04:22:37;4.27;;;1.23;;
8927;SDS011;4499;48.304;11.902;2022-11-21T04:25:06;1.10;;;1.00;;
8927;SDS011;4499;48.304;11.902;2022-11-21T04:27:34;3.83;;;1.10;;
8927;SDS011;4499;48.304;11.902;2022-11-21T04:30:04;2.90;;;1.03;;
8927;SDS011;4499;48.304;11.902;2022-11-21T04:32:33;1.33;;;0.90;;
8927;SDS011;4499;48.304;11.902;2022-11-21T04:35:01;1.97;;;0.90;;
8927;SDS011;4499;48.304;11.902;2022-11-21T04:37:30;1.97;;;0.90;;
8927;SDS011;4499;48.304;11.902;2022-11-21T04:40:00;1.57;;;0.90;;
8927;SDS011;4499;48.304;11.902;2022-11-21T04:42:31;2.83;;;1.20;;
8927;SDS011;4499;48.304;11.902;2022-11-21T04:44:59;2.80;;;1.30;;
8927;SDS011;4499;48.304;11.902;2022-11-21T04:47:32;2.93;;;1.17;;
8927;SDS011;4499;48.304;11.902;2022-11-21T04:50:03;1.53;;;1.07;;
8927;SDS011;4499;48.304;11.902;2022-11-21T04:52:34;4.07;;;1.00;;
8927;SDS011;4499;48.304;11.902;2022-11-21T04:55:04;2.00;;;1.37;;
8927;SDS011;4499;48.304;11.902;2022-11-21T04:57:33;3.43;;;1.50;;
8927;SDS011;4499;48.304;11.902;2022-11-21T05:00:04;5.43;;;1.50;;
8927;SDS011;4499;48.304;11.902;2022-11-21T05:02:34;3.03;;;1.30;;
8927;SDS011;4499;48.304;11.902;2022-11-21T05:05:03;3.87;;;1.40;;
8927;SDS011;4499;48.304;11.902;2022-11-21T05:07:32;2.77;;;1.20;;
8927;SDS011;4499;48.304;11.902;2022-11-21T05:10:02;3.17;;;1.40;;
8927;SDS011;4499;48.304;11.902;2022-11-21T05:12:31;3.70;;;1.40;;
8927;SDS011;4499;48.304;11.902;2022-11-21T05:15:17;2.03;;;1.20;;
8927;SDS011;4499;48.304;11.902;2022-11-21T05:17:53;2.03;;;0.93;;
8927;SDS011;4499;48.304;11.902;2022-11-21T05:20:27;3.13;;;1.43;;
8927;SDS011;4499;48.304;11.902;2022-11-21T05:23:01;1.70;;;1.00;;
8927;SDS011;4499;48.304;11.902;2022-11-21T05:25:30;2.63;;;1.20;;
8927;SDS011;4499;48.304;11.902;2022-11-21T05:27:58;2.40;;;1.00;;
8927;SDS011;4499;48.304;11.902;2022-11-21T05:30:29;2.57;;;1.10;;
8927;SDS011;4499;48.304;11.902;2022-11-21T05:32:58;1.27;;;0.93;;
8927;SDS011;4499;48.304;11.902;2022-11-21T05:35:26;2.20;;;1.10;;
8927;SDS011;4499;48.304;11.902;2022-11-21T05:37:57;3.33;;;1.33;;
8927;SDS011;4499;48.304;11.902;2022-11-21T05:40:28;3.57;;;1.23;;
8927;SDS011;4499;48.304;11.902;2022-11-21T05:42:59;2.93;;;1.20;;
8927;SDS011;4499;48.304;11.902;2022-11-21T05:45:47;4.07;;;1.20;;
8927;SDS011;4499;48.304;11.902;2022-11-21T05:48:17;1.87;;;1.23;;
8927;SDS011;4499;48.304;11.902;2022-11-21T05:50:46;3.33;;;1.37;;
8927;SDS011;4499;48.304;11.902;2022-11-21T05:53:15;2.53;;;1.33;;
8927;SDS011;4499;48.304;11.902;2022-11-21T05:55:43;3.73;;;1.40;;
8927;SDS011;4499;48.304;11.902;2022-11-21T05:58:15;1.67;;;1.10;;
8927;SDS011;4499;48.304;11.902;2022-11-21T06:00:43;3.50;;;1.40;;
8927;SDS011;4499;48.304;11.902;2022-11-21T06:03:11;4.40;;;1.30;;
8927;SDS011;4499;48.304;11.902;2022-11-21T06:06:01;2.23;;;1.40;;
8927;SDS011;4499;48.304;11.902;2022-11-21T06:08:31;3.33;;;1.23;;
8927;SDS011;4499;48.304;11.902;2022-11-21T06:11:02;2.67;;;1.17;;
8927;SDS011;4499;48.304;11.902;2022-11-21T06:13:33;5.10;;;2.00;;
8927;SDS011;4499;48.304;11.902;2022-11-21T06:16:03;3.83;;;1.40;;
8927;SDS011;4499;48.304;11.902;2022-11-21T06:18:35;2.60;;;1.30;;
8927;SDS011;4499;48.304;11.902;2022-11-21T06:21:06;4.30;;;1.67;;
8927;SDS011;4499;48.304;11.902;2022-11-21T06:23:35;4.80;;;1.50;;
8927;SDS011;4499;48.304;11.902;2022-11-21T06:26:10;4.43;;;1.70;;
8927;SDS011;4499;48.304;11.902;2022-11-21T06:28:40;7.23;;;3.73;;
8927;SDS011;4499;48.304;11.902;2022-11-21T06:31:10;2.40;;;1.57;;
8927;SDS011;4499;48.304;11.902;2022-11-21T06:33:39;3.83;;;1.80;;
8927;SDS011;4499;48.304;11.902;2022-11-21T06:36:10;3.97;;;2.10;;
8927;SDS011;4499;48.304;11.902;2022-11-21T06:38:44;4.23;;;1.80;;
8927;SDS011;4499;48.304;11.902;2022-11-21T06:41:14;2.97;;;1.20;;
8927;SDS011;4499;48.304;11.902;2022-11-21T06:43:43;2.93;;;1.40;;
8927;SDS011;4499;48.304;11.902;2022-11-21T06:46:14;2.03;;;1.10;;
8927;SDS011;4499;48.304;11.902;2022-11-21T06:48:42;2.30;;;1.60;;
8927;SDS011;4499;48.304;11.902;2022-11-21T06:51:15;2.27;;;1.23;;
8927;SDS011;4499;48.304;11.902;2022-11-21T06:53:47;2.63;;;1.53;;
8927;SDS011;4499;48.304;11.902;2022-11-21T06:56:21;2.30;;;1.30;;
8927;SDS011;4499;48.304;11.902;2022-11-21T06:58:51;2.23;;;1.23;;
8927;SDS011;4499;48.304;11.902;2022-11-21T07:01:21;1.93;;;1.40;;
8927;SDS011;4499;48.304;11.902;2022-11-21T07:03:50;3.23;;;1.20;;
8927;SDS011;4499;48.304;11.902;2022-11-21T07:06:20;2.70;;;1.53;;
8927;SDS011;4499;48.304;11.902;2022-11-21T07:08:50;2.10;;;1.40;;
8927;SDS011;4499;48.304;11.902;2022-11-21T07:11:42;2.47;;;1.47;;
8927;SDS011;4499;48.304;11.902;2022-11-21T07:14:10;2.07;;;1.30;;
8927;SDS011;4499;48.304;11.902;2022-11-21T07:16:39;2.97;;;1.67;;
8927;SDS011;4499;48.304;11.902;2022-11-21T07:19:09;2.97;;;1.37;;
8927;SDS011;4499;48.304;11.902;2022-11-21T07:21:39;1.97;;;1.40;;
8927;SDS011;4499;48.304;11.902;2022-11-21T07:24:11;3.60;;;1.50;;
8927;SDS011;4499;48.304;11.902;2022-11-21T07:26:39;2.03;;;1.30;;
8927;SDS011;4499;48.304;11.902;2022-11-21T07:29:07;2.03;;;1.40;;
8927;SDS011;4499;48.304;11.902;2022-11-21T07:31:35;3.30;;;1.83;;
8927;SDS011;4499;48.304;11.902;2022-11-21T07:34:06;2.17;;;1.50;;
8927;SDS011;4499;48.304;11.902;2022-11-21T07:36:34;2.93;;;1.90;;
8927;SDS011;4499;48.304;11.902;2022-11-21T07:39:04;2.83;;;1.80;;
8927;SDS011;4499;48.304;11.902;2022-11-21T07:41:37;3.17;;;1.60;;
8927;SDS011;4499;48.304;11.902;2022-11-21T07:44:06;2.13;;;1.50;;
8927;SDS011;4499;48.304;11.902;2022-11-21T07:46:34;1.90;;;1.40;;
8927;SDS011;4499;48.304;11.902;2022-11-21T07:49:03;1.53;;;1.40;;
8927;SDS011;4499;48.304;11.902;2022-11-21T07:51:32;2.33;;;1.60;;
8927;SDS011;4499;48.304;11.902;2022-11-21T07:54:04;1.57;;;1.47;;
8927;SDS011;4499;48.304;11.902;2022-11-21T07:56:33;2.93;;;1.60;;
8927;SDS011;4499;48.304;11.902;2022-11-21T07:59:01;1.40;;;1.30;;
8927;SDS011;4499;48.304;11.902;2022-11-21T08:01:29;1.47;;;1.37;;
8927;SDS011;4499;48.304;11.902;2022-11-21T08:03:59;2.87;;;1.90;;
8927;SDS011;4499;48.304;11.902;2022-11-21T08:06:28;4.53;;;2.50;;
8927;SDS011;4499;48.304;11.902;2022-11-21T08:09:00;2.83;;;2.03;;
8927;SDS011;4499;48.304;11.902;2022-11-21T08:11:31;1.53;;;1.33;;
8927;SDS011;4499;48.304;11.902;2022-11-21T08:14:02;1.80;;;1.33;;
8927;SDS011;4499;48.304;11.902;2022-11-21T08:16:31;1.70;;;1.50;;
8927;SDS011;4499;48.304;11.902;2022-11-21T08:19:00;1.77;;;0.97;;
8927;SDS011;4499;48.304;11.902;2022-11-21T08:21:32;1.17;;;0.80;;
8927;SDS011;4499;48.304;11.902;2022-11-21T08:24:00;0.97;;;0.93;;
8927;SDS011;4499;48.304;11.902;2022-11-21T08:26:29;0.73;;;0.73;;
8927;SDS011;4499;48.304;11.902;2022-11-21T08:28:59;0.87;;;0.80;;
8927;SDS011;4499;48.304;11.902;2022-11-21T08:31:29;0.77;;;0.70;;
8927;SDS011;4499;48.304;11.902;2022-11-21T08:33:57;0.60;;;0.60;;
8927;SDS011;4499;48.304;11.902;2022-11-21T08:36:25;0.97;;;0.87;;
8927;SDS011;4499;48.304;11.902;2022-11-21T08:38:54;0.73;;;0.73;;
8927;SDS011;4499;48.304;11.902;2022-11-21T08:41:27;1.53;;;0.80;;
8927;SDS011;4499;48.304;11.902;2022-11-21T08:44:14;0.73;;;0.70;;
8927;SDS011;4499;48.304;11.902;2022-11-21T08:46:42;1.23;;;0.70;;
8927;SDS011;4499;48.304;11.902;2022-11-21T08:49:10;3.07;;;0.80;;
8927;SDS011;4499;48.304;11.902;2022-11-21T08:51:39;2.13;;;0.87;;
8927;SDS011;4499;48.304;11.902;2022-11-21T08:54:10;1.87;;;0.90;;
8927;SDS011;4499;48.304;11.902;2022-11-21T08:56:41;2.70;;;1.07;;
8927;SDS011;4499;48.304;11.902;2022-11-21T08:59:09;1.30;;;0.60;;
8927;SDS011;4499;48.304;11.902;2022-11-21T09:01:44;1.07;;;0.70;;
8927;SDS011;4499;48.304;11.902;2022-11-21T09:04:12;0.80;;;0.60;;
8927;SDS011;4499;48.304;11.902;2022-11-21T09:06:41;1.60;;;1.40;;
8927;SDS011;4499;48.304;11.902;2022-11-21T09:09:09;1.63;;;0.73;;
8927;SDS011;4499;48.304;11.902;2022-11-21T09:11:37;2.03;;;0.70;;
8927;SDS011;4499;48.304;11.902;2022-11-21T09:14:06;1.63;;;0.90;;
8927;SDS011;4499;48.304;11.902;2022-11-21T09:16:53;0.90;;;0.63;;
8927;SDS011;4499;48.304;11.902;2022-11-21T09:19:40;2.30;;;0.80;;
8927;SDS011;4499;48.304;11.902;2022-11-21T09:22:08;1.40;;;0.77;;
8927;SDS011;4499;48.304;11.902;2022-11-21T09:24:36;1.83;;;0.80;;
8927;SDS011;4499;48.304;11.902;2022-11-21T09:27:06;1.57;;;0.80;;
8927;SDS011;4499;48.304;11.902;2022-11-21T09:29:34;2.27;;;1.00;;
8927;SDS011;4499;48.304;11.902;2022-11-21T09:32:04;1.20;;;0.60;;
8927;SDS011;4499;48.304;11.902;2022-11-21T09:34:32;2.07;;;0.80;;
8927;SDS011;4499;48.304;11.902;2022-11-21T09:37:03;1.83;;;0.83;;
8927;SDS011;4499;48.304;11.902;2022-11-21T09:39:31;1.70;;;1.00;;
8927;SDS011;4499;48.304;11.902;2022-11-21T09:42:02;0.93;;;0.83;;
8927;SDS011;4499;48.304;11.902;2022-11-21T09:44:54;2.37;;;0.97;;
8927;SDS011;4499;48.304;11.902;2022-11-21T09:47:33;1.20;;;0.90;;
8927;SDS011;4499;48.304;11.902;2022-11-21T09:50:15;2.63;;;0.97;;
8927;SDS011;4499;48.304;11.902;2022-11-21T09:52:52;1.97;;;0.87;;
8927;SDS011;4499;48.304;11.902;2022-11-21T09:55:26;1.77;;;0.87;;
8927;SDS011;4499;48.304;11.902;2022-11-21T09:58:04;2.63;;;1.00;;
8927;SDS011;4499;48.304;11.902;2022-11-21T10:00:40;7.47;;;5.27;;
8927;SDS011;4499;48.304;11.902;2022-11-21T10:03:10;4.03;;;1.40;;
8927;SDS011;4499;48.304;11.902;2022-11-21T10:05:47;1.40;;;1.00;;
8927;SDS011;4499;48.304;11.902;2022-11-21T10:08:23;1.27;;;0.77;;
8927;SDS011;4499;48.304;11.902;2022-11-21T10:11:02;1.33;;;0.87;;
8927;SDS011;4499;48.304;11.902;2022-11-21T10:13:52;2.80;;;0.87;;
8927;SDS011;4499;48.304;11.902;2022-11-21T10:16:31;3.30;;;0.80;;
8927;SDS011;4499;48.304;11.902;2022-11-21T10:19:17;1.53;;;1.00;;
8927;SDS011;4499;48.304;11.902;2022-11-21T10:22:02;2.13;;;1.23;;
8927;SDS011;4499;48.304;11.902;2022-11-21T10:24:48;3.10;;;1.20;;
8927;SDS011;4499;48.304;11.902;2022-11-21T10:27:28;1.97;;;1.30;;
8927;SDS011;4499;48.304;11.902;2022-11-21T10:30:01;3.80;;;1.13;;
8927;SDS011;4499;48.304;11.902;2022-11-21T10:32:34;3.33;;;1.00;;
8927;SDS011;4499;48.304;11.902;2022-11-21T10:35:12;1.83;;;0.77;;
8927;SDS011;4499;48.304;11.902;2022-11-21T10:37:44;2.60;;;1.07;;
8927;SDS011;4499;48.304;11.902;2022-11-21T10:40:19;2.77;;;1.20;;
8927;SDS011;4499;48.304;11.902;2022-11-21T10:42:59;2.10;;;0.90;;
8927;SDS011;4499;48.304;11.902;2022-11-21T10:45:51;1.97;;;0.83;;
8927;SDS011;4499;48.304;11.902;2022-11-21T10:48:18;3.50;;;1.10;;
8927;SDS011;4499;48.304;11.902;2022-11-21T10:50:52;4.47;;;1.00;;
8927;SDS011;4499;48.304;11.902;2022-11-21T10:53:33;5.13;;;1.40;;
8927;SDS011;4499;48.304;11.902;2022-11-21T10:56:20;2.63;;;1.13;;
8927;SDS011;4499;48.304;11.902;2022-11-21T10:58:50;6.17;;;1.33;;
8927;SDS011;4499;48.304;11.902;2022-11-21T11:01:21;3.70;;;1.20;;
8927;SDS011;4499;48.304;11.902;2022-11-21T11:04:15;3.47;;;1.17;;
8927;SDS011;4499;48.304;11.902;2022-11-21T11:07:18;3.70;;;1.50;;
8927;SDS011;4499;48.304;11.902;2022-11-21T11:09:49;2.77;;;1.20;;
8927;SDS011;4499;48.304;11.902;2022-11-21T11:12:27;3.47;;;1.00;;
8927;SDS011;4499;48.304;11.902;2022-11-21T11:15:15;1.87;;;1.13;;
8927;SDS011;4499;48.304;11.902;2022-11-21T11:17:48;4.33;;;1.30;;
8927;SDS011;4499;48.304;11.902;2022-11-21T11:20:35;5.33;;;1.53;;
8927;SDS011;4499;48.304;11.902;2022-11-21T11:23:15;5.90;;;1.80;;
8927;SDS011;4499;48.304;11.902;2022-11-21T11:25:50;4.70;;;1.97;;
8927;SDS011;4499;48.304;11.902;2022-11-21T11:28:19;4.10;;;1.80;;
8927;SDS011;4499;48.304;11.902;2022-11-21T11:30:49;3.97;;;1.43;;
8927;SDS011;4499;48.304;11.902;2022-11-21T11:33:32;2.53;;;1.10;;
8927;SDS011;4499;48.304;11.902;2022-11-21T11:36:12;3.53;;;1.10;;
8927;SDS011;4499;48.304;11.902;2022-11-21T11:38:44;2.53;;;1.17;;
8927;SDS011;4499;48.304;11.902;2022-11-21T11:41:21;3.50;;;1.27;;
8927;SDS011;4499;48.304;11.902;2022-11-21T11:44:21;3.23;;;1.43;;
8927;SDS011;4499;48.304;11.902;2022-11-21T11:47:16;5.90;;;1.50;;
8927;SDS011;4499;48.304;11.902;2022-11-21T11:49:59;3.60;;;1.30;;
8927;SDS011;4499;48.304;11.902;2022-11-21T11:52:41;3.40;;;1.50;;
8927;SDS011;4499;48.304;11.902;2022-11-21T11:55:19;3.47;;;1.30;;
8927;SDS011;4499;48.304;11.902;2022-11-21T11:57:55;3.47;;;1.23;;
8927;SDS011;4499;48.304;11.902;2022-11-21T12:00:30;3.97;;;1.37;;
8927;SDS011;4499;48.304;11.902;2022-11-21T12:03:07;2.67;;;1.20;;
8927;SDS011;4499;48.304;11.902;2022-11-21T12:05:49;3.20;;;1.30;;
8927;SDS011;4499;48.304;11.902;2022-11-21T12:08:24;2.40;;;1.47;;
8927;SDS011;4499;48.304;11.902;2022-11-21T12:11:19;3.90;;;1.60;;
8927;SDS011;4499;48.304;11.902;2022-11-21T12:17:53;3.40;;;1.20;;
8927;SDS011;4499;48.304;11.902;2022-11-21T12:20:32;2.83;;;1.40;;
8927;SDS011;4499;48.304;11.902;2022-11-21T12:23:03;3.60;;;1.70;;
8927;SDS011;4499;48.304;11.902;2022-11-21T12:25:35;5.43;;;1.70;;
8927;SDS011;4499;48.304;11.902;2022-11-21T12:28:13;3.97;;;1.50;;
8927;SDS011;4499;48.304;11.902;2022-11-21T12:30:49;3.80;;;1.73;;
8927;SDS011;4499;48.304;11.902;2022-11-21T12:33:32;4.50;;;1.67;;
8927;SDS011;4499;48.304;11.902;2022-11-21T12:36:13;4.63;;;1.33;;
8927;SDS011;4499;48.304;11.902;2022-11-21T12:39:01;2.63;;;1.40;;
8927;SDS011;4499;48.304;11.902;2022-11-21T12:42:04;4.50;;;1.50;;
8927;SDS011;4499;48.304;11.902;2022-11-21T12:45:03;4.03;;;1.67;;
8927;SDS011;4499;48.304;11.902;2022-11-21T12:47:53;2.87;;;1.40;;
8927;SDS011;4499;48.304;11.902;2022-11-21T12:50:54;2.80;;;1.03;;
8927;SDS011;4499;48.304;11.902;2022-11-21T12:54:04;2.83;;;1.13;;
8927;SDS011;4499;48.304;11.902;2022-11-21T12:57:07;7.00;;;1.57;;
8927;SDS011;4499;48.304;11.902;2022-11-21T13:05:31;2.37;;;1.60;;
8927;SDS011;4499;48.304;11.902;2022-11-21T13:08:05;2.53;;;1.30;;
8927;SDS011;4499;48.304;11.902;2022-11-21T13:10:37;2.43;;;0.90;;
8927;SDS011;4499;48.304;11.902;2022-11-21T13:13:17;4.57;;;1.87;;
8927;SDS011;4499;48.304;11.902;2022-11-21T13:15:53;5.40;;;1.53;;
8927;SDS011;4499;48.304;11.902;2022-11-21T13:18:27;4.07;;;1.30;;
8927;SDS011;4499;48.304;11.902;2022-11-21T13:21:04;4.57;;;1.30;;
8927;SDS011;4499;48.304;11.902;2022-11-21T13:24:05;3.27;;;1.30;;
8927;SDS011;4499;48.304;11.902;2022-11-21T13:26:45;3.90;;;1.10;;
8927;SDS011;4499;48.304;11.902;2022-11-21T13:29:17;2.40;;;1.07;;
8927;SDS011;4499;48.304;11.902;2022-11-21T13:31:47;4.23;;;1.20;;
8927;SDS011;4499;48.304;11.902;2022-11-21T13:34:35;3.20;;;1.30;;
8927;SDS011;4499;48.304;11.902;2022-11-21T13:37:06;3.80;;;1.30;;
8927;SDS011;4499;48.304;11.902;2022-11-21T13:39:36;4.10;;;1.20;;
8927;SDS011;4499;48.304;11.902;2022-11-21T13:42:05;4.00;;;1.43;;
8927;SDS011;4499;48.304;11.902;2022-11-21T13:48:18;3.93;;;1.23;;
8927;SDS011;4499;48.304;11.902;2022-11-21T13:51:21;3.23;;;1.30;;
8927;SDS011;4499;48.304;11.902;2022-11-21T13:54:15;3.43;;;1.20;;
8927;SDS011;4499;48.304;11.902;2022-11-21T13:57:04;4.37;;;1.20;;
8927;SDS011;4499;48.304;11.902;2022-11-21T13:59:50;4.70;;;1.37;;
8927;SDS011;4499;48.304;11.902;2022-11-21T14:05:52;3.83;;;1.30;;
8927;SDS011;4499;48.304;11.902;2022-11-21T14:08:29;3.67;;;1.20;;
8927;SDS011;4499;48.304;11.902;2022-11-21T14:10:58;3.17;;;1.03;;
8927;SDS011;4499;48.304;11.902;2022-11-21T14:13:46;3.13;;;1.30;;
8927;SDS011;4499;48.304;11.902;2022-11-21T14:16:21;4.07;;;1.43;;
8927;SDS011;4499;48.304;11.902;2022-11-21T14:18:55;2.47;;;1.37;;
8927;SDS011;4499;48.304;11.902;2022-11-21T14:21:26;4.57;;;1.50;;
8927;SDS011;4499;48.304;11.902;2022-11-21T14:23:57;4.97;;;1.30;;
8927;SDS011;4499;48.304;11.902;2022-11-21T14:26:29;4.40;;;1.57;;
8927;SDS011;4499;48.304;11.902;2022-11-21T14:29:15;3.00;;;1.23;;
8927;SDS011;4499;48.304;11.902;2022-11-21T14:31:44;6.13;;;1.73;;
8927;SDS011;4499;48.304;11.902;2022-11-21T14:34:25;1.87;;;1.30;;
8927;SDS011;4499;48.304;11.902;2022-11-21T14:37:01;3.87;;;1.43;;
8927;SDS011;4499;48.304;11.902;2022-11-21T14:39:33;2.37;;;1.30;;
8927;SDS011;4499;48.304;11.902;2022-11-21T14:42:10;4.03;;;1.63;;
8927;SDS011;4499;48.304;11.902;2022-11-21T14:44:41;4.10;;;1.37;;
8927;SDS011;4499;48.304;11.902;2022-11-21T14:47:12;5.20;;;1.80;;
8927;SDS011;4499;48.304;11.902;2022-11-21T14:49:51;4.47;;;1.60;;
8927;SDS011;4499;48.304;11.902;2022-11-21T14:52:23;4.17;;;1.50;;
8927;SDS011;4499;48.304;11.902;2022-11-21T14:54:54;4.83;;;1.87;;
8927;SDS011;4499;48.304;11.902;2022-11-21T14:57:43;7.53;;;2.10;;
8927;SDS011;4499;48.304;11.902;2022-11-21T15:00:19;5.27;;;2.27;;
8927;SDS011;4499;48.304;11.902;2022-11-21T15:03:15;5.57;;;2.23;;
8927;SDS011;4499;48.304;11.902;2022-11-21T15:05:57;5.50;;;1.80;;
8927;SDS011;4499;48.304;11.902;2022-11-21T15:08:34;6.03;;;1.80;;
8927;SDS011;4499;48.304;11.902;2022-11-21T15:11:24;4.83;;;1.90;;
8927;SDS011;4499;48.304;11.902;2022-11-21T15:13:59;4.97;;;2.00;;
8927;SDS011;4499;48.304;11.902;2022-11-21T15:16:42;4.57;;;2.03;;
8927;SDS011;4499;48.304;11.902;2022-11-21T15:19:16;6.93;;;2.03;;
8927;SDS011;4499;48.304;11.902;2022-11-21T15:21:48;6.50;;;1.90;;
8927;SDS011;4499;48.304;11.902;2022-11-21T15:24:25;3.57;;;1.70;;
8927;SDS011;4499;48.304;11.902;2022-11-21T15:32:58;5.47;;;1.90;;
8927;SDS011;4499;48.304;11.902;2022-11-21T15:35:38;4.03;;;1.70;;
8927;SDS011;4499;48.304;11.902;2022-11-21T15:41:24;3.83;;;1.87;;
8927;SDS011;4499;48.304;11.902;2022-11-21T15:44:18;3.53;;;1.80;;
8927;SDS011;4499;48.304;11.902;2022-11-21T15:46:51;4.70;;;2.63;;
8927;SDS011;4499;48.304;11.902;2022-11-21T15:49:19;3.57;;;2.30;;
8927;SDS011;4499;48.304;11.902;2022-11-21T15:52:08;3.77;;;2.20;;
8927;SDS011;4499;48.304;11.902;2022-11-21T15:54:41;4.63;;;2.50;;
8927;SDS011;4499;48.304;11.902;2022-11-21T15:57:12;3.57;;;2.13;;
8927;SDS011;4499;48.304;11.902;2022-11-21T15:59:42;4.53;;;2.60;;
8927;SDS011;4499;48.304;11.902;2022-11-21T16:02:11;12.33;;;6.60;;
8927;SDS011;4499;48.304;11.902;2022-11-21T16:04:39;6.57;;;3.30;;
8927;SDS011;4499;48.304;11.902;2022-11-21T16:07:09;4.03;;;2.10;;